メインページ
METAR-TAF:

METAR-TAF

空港 :

ルイ・アームストロング・ニューオーリンズ国際空港

ニューオーリンズ, ルイジアナ州, アメリカ合衆国

緯度: 29-59-34N, 経度: 090-15-03W, 海抜: 1m

現時点の気象観測

当レポートは23分前の06:53(UTC)に作成
の風 4kt
気温 26°C
湿度 94%
気圧 1017 hPa
視程: 16.1km
高度20000ftの千切れ雲あり

METAR: KMSY 170653Z 19004KT 10SM BKN200 26/25 A3002 RMK AO2 SLP169 T02610250

時間: 02:16 (07:16 UTC)

予報

当レポートは1時間56分前の05:20(UTC)に作成
予報は17日の 06時(UTC)から 18日の 12時(UTC)まで有効
南/南西の風 5kt
視程: 10km
高度7000ftの雲はほとんどない
高度12000ftの千切れ雲あり
高度20000ftの曇り
小雨
17日の 1500時(UTC)から
北西の風 7kt
視程: 10km
高度3500ftの雲は散在している
高度10000ftの千切れ雲あり
確率 30%
17日の 18時(UTC)から 17日の 23時(UTC)まで
視程: 6.4km
高度4000ftの曇り, 積乱雲.
激しい雷雨, 雨
17日の 2300時(UTC)から
西/南西の風 6kt
視程: 10km
高度10000ftの曇り
確率 30%
17日の 23時(UTC)から 18日の 05時(UTC)まで
視程: 6.4km
高度4000ftの曇り, 積乱雲.
激しい雷雨, 雨
18日の 0500時(UTC)から
南西の風 5kt
視程: 10km
高度4000ftの雲は散在している

TAF: KMSY 170520Z 1706/1812 20005KT P6SM -RA FEW070 BKN120 OVC200 FM171500 31007KT P6SM SCT035 BKN100 PROB30 1718/1723 4SM TSRA OVC040CB FM172300 24006KT P6SM OVC100 PROB30 1723/1805 4SM TSRA OVC040CB FM180500 23005KT P6SM SCT040

4,000以上の空港の気象観測と天気予報(METAR報とTAF報)

利用可能な観測所は地図上に黄色い丸と赤い丸で示す。

丸の上にカーソルを重ねると観測所名を参照できる。

次にクリックすると気象観測と天気予報を参照できる。

マップの切り替え:黒色「×」印の緑ボタンをクリックして拡大、「-」印の緑ボタンをクリックして縮小、緑色の三角印をクリックして隣りの地図に切り替え


METAR-TAF: